Time,TemperatureF,DewpointF,PressureIn,WindDirection,WindDirectionDegrees,WindSpeedMPH,WindSpeedGustMPH,Humidity,HourlyPrecipIn,Conditions,Clouds,dailyrainin,SolarRadiationWatts/m^2,SoftwareType,DateUTC
2013-08-06 01:00:00,66.0,58.0,-100.00,East,101,0.0,2.0,75,-99.99,,,-99.99,0.100000,,2013-08-06 07:00:00,
2013-08-06 01:22:00,66.0,58.0,-100.00,East,101,0.0,2.0,75,-99.99,,,-99.99,0.100000,,2013-08-06 07:22:00,
2013-08-06 01:32:00,66.0,58.0,-100.00,East,101,0.0,2.0,75,-99.99,,,-99.99,0.100000,,2013-08-06 07:32:00,
2013-08-06 01:44:00,66.0,58.0,-100.00,East,101,0.0,2.0,75,-99.99,,,-99.99,0.100000,,2013-08-06 07:44:00,
2013-08-06 01:53:00,66.0,58.0,-100.00,East,101,0.0,2.0,75,-99.99,,,-99.99,0.100000,,2013-08-06 07:53:00,
2013-08-06 02:00:00,65.0,56.0,30.11,SE,131,1.0,3.0,73,-99.99,,,-99.99,0.100000,,2013-08-06 08:00:00,
2013-08-06 02:52:00,65.0,56.0,30.11,SE,131,1.0,3.0,73,-99.99,,,-99.99,0.100000,,2013-08-06 08:52:00,
2013-08-06 03:00:00,68.0,53.0,30.12,North,354,1.0,3.0,58,-99.99,,,-99.99,0.130000,,2013-08-06 09:00:00,
2013-08-06 04:00:00,67.0,53.0,30.13,NNE,17,2.0,9.0,62,-99.99,,,-99.99,0.090000,,2013-08-06 10:00:00,
2013-08-06 05:00:00,66.0,53.0,30.13,NNE,20,3.0,7.0,62,-99.99,,,-99.99,0.110000,,2013-08-06 11:00:00,
2013-08-06 05:53:00,66.0,53.0,30.13,NNE,20,3.0,7.0,62,-99.99,,,-99.99,0.110000,,2013-08-06 11:53:00,
2013-08-06 06:00:00,68.0,52.0,30.13,NNE,17,2.0,7.0,58,-99.99,,,-99.99,0.170000,,2013-08-06 12:00:00,
2013-08-06 07:00:00,65.0,54.0,30.14,North,10,2.0,7.0,67,-99.99,,,-99.99,12.380000,,2013-08-06 13:00:00,
2013-08-06 08:00:00,70.0,57.0,30.12,NNW,347,1.0,5.0,62,-99.99,,,-99.99,178.500000,,2013-08-06 14:00:00,
2013-08-06 09:00:00,73.0,53.0,30.13,NW,326,1.0,3.0,50,-99.99,,,-99.99,315.200012,,2013-08-06 15:00:00,
2013-08-06 09:52:00,73.0,53.0,30.13,NW,326,1.0,3.0,50,-99.99,,,-99.99,315.200012,,2013-08-06 15:52:00,
2013-08-06 10:00:00,75.0,53.0,30.12,West,277,3.0,4.0,46,-99.99,,,-99.99,438.200012,,2013-08-06 16:00:00,
2013-08-06 11:00:00,80.0,50.0,30.11,WNW,297,2.0,7.0,35,-99.99,,,-99.99,737.900024,,2013-08-06 17:00:00,
2013-08-06 11:52:00,80.0,50.0,30.11,WNW,297,2.0,7.0,35,-99.99,,,-99.99,737.900024,,2013-08-06 17:52:00,
2013-08-06 12:00:00,82.0,50.0,30.10,SSW,210,2.0,6.0,32,-99.99,,,-99.99,868.000000,,2013-08-06 18:00:00,
2013-08-06 12:52:00,82.0,50.0,30.10,SSW,210,2.0,6.0,32,-99.99,,,-99.99,868.000000,,2013-08-06 18:52:00,
2013-08-06 13:00:00,84.0,49.0,30.09,SW,223,4.0,-999.0,29,-99.99,,,-99.99,928.000000,,2013-08-06 19:00:00,
2013-08-06 14:00:00,74.0,50.0,30.07,WSW,245,10.0,11.0,43,-99.99,,,-99.99,443.600006,,2013-08-06 20:00:00,
2013-08-06 15:00:00,74.0,52.0,30.05,WSW,247,7.0,22.0,46,-99.99,,,-99.99,189.500000,,2013-08-06 21:00:00,
2013-08-06 15:52:00,74.0,52.0,30.05,WSW,247,7.0,22.0,46,-99.99,,,-99.99,189.500000,,2013-08-06 21:52:00,
2013-08-06 16:00:00,81.0,47.0,30.05,West,274,3.0,14.0,30,-99.99,,,-99.99,498.399994,,2013-08-06 22:00:00,
2013-08-06 16:53:00,81.0,47.0,30.05,West,274,3.0,14.0,30,-99.99,,,-99.99,498.399994,,2013-08-06 22:53:00,
2013-08-06 17:00:00,76.0,51.0,30.03,West,265,8.0,-999.0,41,-99.99,,,-99.99,264.100006,,2013-08-06 23:00:00,
2013-08-06 17:52:00,76.0,51.0,30.03,West,265,8.0,-999.0,41,-99.99,,,-99.99,264.100006,,2013-08-06 23:52:00,
2013-08-06 18:00:00,76.0,48.0,30.03,West,265,7.0,-999.0,38,-99.99,,,-99.99,86.099998,,2013-08-07 00:00:00,
2013-08-06 18:52:00,76.0,48.0,30.03,West,265,7.0,-999.0,38,-99.99,,,-99.99,86.099998,,2013-08-07 00:52:00,
2013-08-06 19:00:00,68.0,58.0,30.07,East,101,5.0,-999.0,68,-99.99,,,-99.99,27.709999,,2013-08-07 01:00:00,
2013-08-06 20:00:00,68.0,57.0,30.08,WSW,240,3.0,13.0,69,-99.99,,,-99.99,21.510000,,2013-08-07 02:00:00,
2013-08-06 21:00:00,66.0,59.0,30.09,WSW,240,1.0,7.0,79,-99.99,,,-99.99,0.310000,,2013-08-07 03:00:00,
2013-08-06 21:52:00,66.0,59.0,30.09,WSW,240,1.0,7.0,79,-99.99,,,-99.99,0.310000,,2013-08-07 03:52:00,
2013-08-06 22:00:00,68.0,56.0,30.11,NNE,18,1.0,6.0,65,-99.99,,,-99.99,0.100000,,2013-08-07 04:00:00,
2013-08-06 23:00:00,63.0,58.0,30.10,SSW,198,0.0,4.0,83,-99.99,,,-99.99,0.150000,,2013-08-07 05:00:00,